createdAt,value
2019-03-21T00:00:40.226Z,87.10
2019-03-21T00:04:46.859Z,86.40
2019-03-21T00:08:51.849Z,86.40
2019-03-21T00:12:57.221Z,85.90
2019-03-21T00:17:05.081Z,85.10
2019-03-21T00:21:11.289Z,84.40
2019-03-21T00:25:19.601Z,84.40
2019-03-21T00:29:24.598Z,84.20
2019-03-21T00:33:29.657Z,84.70
2019-03-21T00:37:34.641Z,84.30
2019-03-21T00:41:39.828Z,85.50
2019-03-21T00:45:44.807Z,85.10
2019-03-21T00:49:49.865Z,84.60
2019-03-21T00:53:54.858Z,83.70
2019-03-21T00:57:59.994Z,83.00
2019-03-21T01:02:04.990Z,82.70
2019-03-21T01:06:09.966Z,83.30
2019-03-21T01:10:21.124Z,84.70
2019-03-21T01:14:29.971Z,84.10
2019-03-21T01:18:33.993Z,84.10
2019-03-21T01:22:38.989Z,84.60
2019-03-21T01:26:43.981Z,85.20
2019-03-21T01:30:48.959Z,86.20
2019-03-21T01:34:53.975Z,86.70
2019-03-21T01:38:58.972Z,87.10
2019-03-21T01:43:04.065Z,88.30
2019-03-21T01:47:09.054Z,88.90
2019-03-21T01:51:14.024Z,89.10
2019-03-21T01:55:19.071Z,89.80
2019-03-21T01:59:24.078Z,90.20
2019-03-21T02:03:29.124Z,90.50
2019-03-21T02:07:34.122Z,90.70
2019-03-21T02:11:39.149Z,90.80
2019-03-21T02:15:44.159Z,91.30
2019-03-21T02:19:49.166Z,91.40
2019-03-21T02:23:54.184Z,91.50
2019-03-21T02:27:59.414Z,91.90
2019-03-21T02:32:04.462Z,92.10
2019-03-21T02:36:11.326Z,92.40
2019-03-21T02:40:22.427Z,92.30
2019-03-21T02:44:27.445Z,92.10
2019-03-21T02:48:32.444Z,91.90
2019-03-21T02:52:37.511Z,91.80
2019-03-21T02:56:42.578Z,91.90
2019-03-21T03:00:47.767Z,91.90
2019-03-21T03:04:52.840Z,91.90
2019-03-21T03:08:57.791Z,92.10
2019-03-21T03:13:02.788Z,92.10
2019-03-21T03:17:08.723Z,92.30
2019-03-21T03:21:13.725Z,92.50
2019-03-21T03:25:20.251Z,92.60
2019-03-21T03:29:25.245Z,92.80
2019-03-21T03:33:30.318Z,92.70
2019-03-21T03:37:35.362Z,93.20
2019-03-21T03:41:40.378Z,93.10
2019-03-21T03:45:45.661Z,93.10
2019-03-21T03:49:50.930Z,93.20
2019-03-21T03:53:55.911Z,92.90
2019-03-21T03:58:09.513Z,92.90
2019-03-21T04:02:14.480Z,93.10
2019-03-21T04:06:19.461Z,93.10
2019-03-21T04:10:30.278Z,93.20
2019-03-21T04:14:35.410Z,93.30
2019-03-21T04:18:40.410Z,93.50
2019-03-21T04:22:45.720Z,93.80
2019-03-21T04:26:50.715Z,94.20
2019-03-21T04:30:55.718Z,94.50
2019-03-21T04:35:00.709Z,94.70
2019-03-21T04:39:08.144Z,94.80
2019-03-21T04:43:13.168Z,94.70
2019-03-21T04:47:18.147Z,94.30
2019-03-21T04:51:23.414Z,94.20
2019-03-21T04:55:28.488Z,94.00
2019-03-21T04:59:33.496Z,94.00
2019-03-21T05:03:38.484Z,93.90
2019-03-21T05:07:43.446Z,93.90
2019-03-21T05:11:48.548Z,93.90
2019-03-21T05:15:54.614Z,94.00
2019-03-21T05:19:59.714Z,94.00
2019-03-21T05:24:04.782Z,94.00
2019-03-21T05:28:09.815Z,93.90
2019-03-21T05:32:14.795Z,94.00
2019-03-21T05:36:19.786Z,93.90
2019-03-21T05:40:24.855Z,92.60
2019-03-21T05:44:32.966Z,90.40
2019-03-21T05:48:37.931Z,84.50
2019-03-21T05:52:43.604Z,79.20
2019-03-21T05:56:48.574Z,75.90
2019-03-21T06:01:02.906Z,73.70
2019-03-21T06:05:08.175Z,66.60
2019-03-21T06:09:16.661Z,57.10
2019-03-21T06:13:23.764Z,49.00
2019-03-21T06:17:30.045Z,44.90
2019-03-21T06:21:50.256Z,43.20
2019-03-21T06:26:02.274Z,41.30
2019-03-21T06:30:08.891Z,37.80
2019-03-21T06:34:14.291Z,37.30
2019-03-21T06:38:19.581Z,35.80
2019-03-21T06:42:24.867Z,33.00
2019-03-21T06:46:30.154Z,32.20
2019-03-21T06:50:35.498Z,30.80
2019-03-21T06:54:40.774Z,29.40
2019-03-21T06:58:46.065Z,29.50
2019-03-21T07:02:51.569Z,28.20
2019-03-21T07:07:07.271Z,27.50
2019-03-21T07:11:03.786Z,26.30
2019-03-21T07:15:10.796Z,25.20
2019-03-21T07:19:16.053Z,24.60
2019-03-21T07:23:21.358Z,24.20
2019-03-21T07:27:26.663Z,23.60
2019-03-21T07:31:32.021Z,24.20
2019-03-21T07:35:38.847Z,23.80
2019-03-21T07:39:44.191Z,23.10
2019-03-21T07:43:49.454Z,22.80
2019-03-21T07:47:55.902Z,22.80
2019-03-21T07:52:01.202Z,22.40
2019-03-21T07:56:06.487Z,22.20
2019-03-21T08:00:14.851Z,21.80
2019-03-21T08:04:20.170Z,21.40
2019-03-21T08:08:25.462Z,20.40
2019-03-21T08:12:30.800Z,20.60
2019-03-21T08:16:36.101Z,20.40
2019-03-21T08:20:41.553Z,20.20
2019-03-21T08:24:46.805Z,20.10
2019-03-21T08:28:52.209Z,20.10
2019-03-21T08:32:57.570Z,20.50
2019-03-21T08:37:02.870Z,20.00
2019-03-21T08:41:08.226Z,20.00
2019-03-21T08:45:13.597Z,19.60
2019-03-21T08:49:18.866Z,19.80
2019-03-21T08:53:24.151Z,19.40
2019-03-21T08:57:29.458Z,19.10
2019-03-21T09:01:35.025Z,19.80
2019-03-21T09:05:40.408Z,19.50
2019-03-21T09:09:45.681Z,18.90
2019-03-21T09:13:51.046Z,19.40
2019-03-21T09:17:56.338Z,19.80
2019-03-21T09:22:01.609Z,19.00
2019-03-21T09:26:06.925Z,18.50
2019-03-21T09:30:14.417Z,18.80
2019-03-21T09:34:19.777Z,18.90
2019-03-21T09:38:25.055Z,19.20
2019-03-21T09:42:30.361Z,18.70
2019-03-21T09:46:36.709Z,18.90
2019-03-21T09:50:42.030Z,19.30
2019-03-21T09:54:47.318Z,19.80
2019-03-21T09:58:52.602Z,19.80
2019-03-21T10:02:57.874Z,19.00
2019-03-21T10:07:03.232Z,18.60
2019-03-21T10:11:08.419Z,18.90
2019-03-21T10:15:13.814Z,18.90
2019-03-21T10:19:19.113Z,18.60
2019-03-21T10:23:24.390Z,18.80
2019-03-21T10:27:29.666Z,18.40
2019-03-21T10:31:34.942Z,19.00
2019-03-21T10:35:40.380Z,19.60
2019-03-21T10:39:45.655Z,20.00
2019-03-21T10:43:50.952Z,19.70
2019-03-21T10:47:56.249Z,19.50
2019-03-21T10:52:01.510Z,19.60
2019-03-21T10:56:06.800Z,20.10
2019-03-21T11:00:12.551Z,20.30
2019-03-21T11:04:18.092Z,20.10
2019-03-21T11:08:23.426Z,20.70
2019-03-21T11:12:28.682Z,20.80
2019-03-21T11:16:34.006Z,20.80
2019-03-21T11:20:39.959Z,20.20
2019-03-21T11:24:45.228Z,19.90
2019-03-21T11:28:50.507Z,21.10
2019-03-21T11:32:55.758Z,21.40
2019-03-21T11:37:01.087Z,20.90
2019-03-21T11:41:06.396Z,21.50
2019-03-21T11:45:12.937Z,22.10
2019-03-21T11:49:18.250Z,22.20
2019-03-21T11:53:23.502Z,21.80
2019-03-21T11:57:28.799Z,23.00
2019-03-21T12:01:34.074Z,23.60
2019-03-21T12:05:39.358Z,23.60
2019-03-21T12:09:44.701Z,24.90
2019-03-21T12:13:49.962Z,25.40
2019-03-21T12:17:55.254Z,26.20
2019-03-21T12:22:00.578Z,27.30
2019-03-21T12:26:05.997Z,29.40
2019-03-21T12:30:14.186Z,32.30
2019-03-21T12:34:19.446Z,34.70
2019-03-21T12:38:24.765Z,37.20
2019-03-21T12:42:30.142Z,37.90
2019-03-21T12:46:35.422Z,40.10
2019-03-21T12:50:40.753Z,40.60
2019-03-21T12:54:46.006Z,42.40
2019-03-21T12:58:51.303Z,41.20
2019-03-21T13:02:56.571Z,41.70
2019-03-21T13:07:01.858Z,42.10
2019-03-21T13:11:07.202Z,41.60
2019-03-21T13:15:12.650Z,42.10
2019-03-21T13:19:17.930Z,43.50
2019-03-21T13:23:23.212Z,44.40
2019-03-21T13:27:28.498Z,45.70
2019-03-21T13:31:33.781Z,44.20
2019-03-21T13:35:39.037Z,45.90
2019-03-21T13:39:44.309Z,46.40
2019-03-21T13:43:49.580Z,45.70
2019-03-21T13:47:54.861Z,45.80
2019-03-21T13:52:00.137Z,47.20
2019-03-21T13:56:05.405Z,47.50
2019-03-21T14:00:16.653Z,48.30
2019-03-21T14:04:21.928Z,47.30
2019-03-21T14:08:27.223Z,49.50
2019-03-21T14:12:32.506Z,48.50
2019-03-21T14:16:37.749Z,48.20
2019-03-21T14:20:43.059Z,48.80
2019-03-21T14:24:48.337Z,49.70
2019-03-21T14:28:53.610Z,50.00
2019-03-21T14:32:59.083Z,49.70
2019-03-21T14:37:04.445Z,50.20
2019-03-21T14:41:09.802Z,50.60
2019-03-21T14:45:16.549Z,51.70
2019-03-21T14:49:21.794Z,52.10
2019-03-21T14:53:29.121Z,53.70
2019-03-21T14:57:36.325Z,52.50
2019-03-21T15:01:41.578Z,52.90
2019-03-21T15:05:46.857Z,53.00
2019-03-21T15:09:52.147Z,54.10
2019-03-21T15:13:57.425Z,54.80
2019-03-21T15:18:02.711Z,54.60
2019-03-21T15:22:08.026Z,56.90
2019-03-21T15:26:13.323Z,56.10
2019-03-21T15:30:19.708Z,56.40
2019-03-21T15:34:26.234Z,57.10
2019-03-21T15:38:31.696Z,57.30
2019-03-21T15:42:37.168Z,57.80
2019-03-21T15:46:42.424Z,57.60
2019-03-21T15:50:47.747Z,58.30
2019-03-21T15:54:53.073Z,59.40
2019-03-21T15:58:58.359Z,59.20
2019-03-21T16:03:05.342Z,58.90
2019-03-21T16:07:10.621Z,59.00
2019-03-21T16:11:15.895Z,59.80
2019-03-21T16:15:21.188Z,62.50
2019-03-21T16:19:26.476Z,64.60
2019-03-21T16:23:31.793Z,65.80
2019-03-21T16:27:37.641Z,66.90
2019-03-21T16:31:42.934Z,67.60
2019-03-21T16:35:48.210Z,68.80
2019-03-21T16:39:53.546Z,70.00
2019-03-21T16:43:58.822Z,71.50
2019-03-21T16:48:04.537Z,71.30
2019-03-21T16:52:10.793Z,71.70
2019-03-21T16:56:16.169Z,72.70
2019-03-21T17:00:21.777Z,73.50
2019-03-21T17:04:27.062Z,74.30
2019-03-21T17:08:32.334Z,74.60
2019-03-21T17:12:40.438Z,75.40
2019-03-21T17:16:44.552Z,76.10
2019-03-21T17:20:49.928Z,76.60
2019-03-21T17:24:55.201Z,77.00
2019-03-21T17:29:01.746Z,77.60
2019-03-21T17:33:07.415Z,78.80
2019-03-21T17:37:12.882Z,79.30
2019-03-21T17:41:18.186Z,80.00
2019-03-21T17:45:23.534Z,80.90
2019-03-21T17:49:28.939Z,81.70
2019-03-21T17:53:34.432Z,82.60
2019-03-21T17:57:40.878Z,84.20
2019-03-21T18:01:46.339Z,85.40
2019-03-21T18:05:51.602Z,85.40
2019-03-21T18:09:57.996Z,86.10
2019-03-21T18:14:04.188Z,86.20
2019-03-21T18:18:09.557Z,88.20
2019-03-21T18:22:14.833Z,89.10
2019-03-21T18:26:20.233Z,90.10
2019-03-21T18:30:25.579Z,90.10
2019-03-21T18:34:30.861Z,90.40
2019-03-21T18:38:36.221Z,90.70
2019-03-21T18:42:42.846Z,90.80
2019-03-21T18:46:48.354Z,91.30
2019-03-21T18:50:56.546Z,91.60
2019-03-21T18:55:06.667Z,92.10
2019-03-21T18:59:08.739Z,92.20
2019-03-21T19:03:14.030Z,92.40
2019-03-21T19:07:19.345Z,92.80
2019-03-21T19:11:24.633Z,93.20
2019-03-21T19:15:29.911Z,93.20
2019-03-21T19:19:35.203Z,93.70
2019-03-21T19:23:40.514Z,93.70
2019-03-21T19:27:45.770Z,93.80
2019-03-21T19:31:51.032Z,94.10
2019-03-21T19:35:56.029Z,94.40
2019-03-21T19:40:01.030Z,94.40
2019-03-21T19:44:06.402Z,94.40
2019-03-21T19:48:11.686Z,94.60
2019-03-21T19:52:17.247Z,94.60
2019-03-21T19:56:22.209Z,95.00
2019-03-21T20:00:27.227Z,95.20
2019-03-21T20:04:32.582Z,95.30
2019-03-21T20:08:37.582Z,95.70
2019-03-21T20:12:42.605Z,95.70
2019-03-21T20:16:47.674Z,95.70
2019-03-21T20:20:52.826Z,96.00
2019-03-21T20:24:57.822Z,96.30
2019-03-21T20:29:02.827Z,96.40
2019-03-21T20:33:07.957Z,96.40
2019-03-21T20:37:12.943Z,96.70
2019-03-21T20:41:18.226Z,96.30
2019-03-21T20:45:23.221Z,96.60
2019-03-21T20:49:28.289Z,96.90
2019-03-21T20:53:33.286Z,97.10
2019-03-21T20:57:38.282Z,96.90
2019-03-21T21:01:43.368Z,97.30
2019-03-21T21:05:49.442Z,97.00
2019-03-21T21:09:54.467Z,97.40
2019-03-21T21:13:59.437Z,97.50
2019-03-21T21:18:04.581Z,97.60
2019-03-21T21:22:09.573Z,98.20
2019-03-21T21:26:14.630Z,98.10
2019-03-21T21:30:22.799Z,98.30
2019-03-21T21:34:27.789Z,98.20
2019-03-21T21:38:32.783Z,98.70
2019-03-21T21:42:37.851Z,98.80
2019-03-21T21:46:42.862Z,98.90
2019-03-21T21:50:47.861Z,99.00
2019-03-21T21:54:52.863Z,99.10
2019-03-21T21:58:57.841Z,99.30
2019-03-21T22:03:02.850Z,99.10
2019-03-21T22:07:07.930Z,99.30
2019-03-21T22:11:12.930Z,99.30
2019-03-21T22:15:18.416Z,99.50
2019-03-21T22:19:23.403Z,99.80
2019-03-21T22:23:29.458Z,99.80
2019-03-21T22:27:34.477Z,99.90
2019-03-21T22:31:39.477Z,99.90
2019-03-21T22:35:44.496Z,99.90
2019-03-21T22:39:49.486Z,99.90
2019-03-21T22:43:54.494Z,99.90
2019-03-21T22:47:59.508Z,99.90
2019-03-21T22:52:04.509Z,99.90
2019-03-21T22:56:09.509Z,99.90
2019-03-21T23:00:29.175Z,99.90
2019-03-21T23:04:35.845Z,99.90
2019-03-21T23:08:41.939Z,99.90
2019-03-21T23:12:46.930Z,99.90
2019-03-21T23:16:51.998Z,99.90
2019-03-21T23:20:57.045Z,99.90
2019-03-21T23:25:02.065Z,99.90
2019-03-21T23:29:07.117Z,99.90
2019-03-21T23:33:12.187Z,99.90
2019-03-21T23:37:17.266Z,99.90
2019-03-21T23:41:23.309Z,99.90
2019-03-21T23:45:28.380Z,99.90
2019-03-21T23:49:33.397Z,99.90
2019-03-21T23:53:38.427Z,99.90
2019-03-21T23:57:43.437Z,99.90
